sensor_id;sensor_type;location;lat;lon;timestamp;P1;durP1;ratioP1;P2;durP2;ratioP2
51010;SDS011;37038;50.182;8.624;2023-01-15T00:01:15;6.70;;;4.20;;
51010;SDS011;37038;50.182;8.624;2023-01-15T00:04:36;5.28;;;3.80;;
51010;SDS011;37038;50.182;8.624;2023-01-15T00:07:29;5.25;;;3.67;;
51010;SDS011;37038;50.182;8.624;2023-01-15T00:10:25;4.93;;;3.58;;
51010;SDS011;37038;50.182;8.624;2023-01-15T00:13:17;4.25;;;3.25;;
51010;SDS011;37038;50.182;8.624;2023-01-15T00:16:30;3.97;;;2.40;;
51010;SDS011;37038;50.182;8.624;2023-01-15T00:19:21;3.93;;;2.13;;
51010;SDS011;37038;50.182;8.624;2023-01-15T00:22:12;2.92;;;2.13;;
51010;SDS011;37038;50.182;8.624;2023-01-15T00:25:06;3.53;;;2.15;;
51010;SDS011;37038;50.182;8.624;2023-01-15T00:28:21;3.50;;;2.03;;
51010;SDS011;37038;50.182;8.624;2023-01-15T00:31:12;3.10;;;1.92;;
51010;SDS011;37038;50.182;8.624;2023-01-15T00:34:01;2.92;;;1.73;;
51010;SDS011;37038;50.182;8.624;2023-01-15T00:36:52;5.93;;;2.40;;
51010;SDS011;37038;50.182;8.624;2023-01-15T00:39:42;4.45;;;2.38;;
51010;SDS011;37038;50.182;8.624;2023-01-15T00:42:34;1.73;;;1.63;;
51010;SDS011;37038;50.182;8.624;2023-01-15T00:45:25;2.42;;;1.95;;
51010;SDS011;37038;50.182;8.624;2023-01-15T00:48:16;3.03;;;1.60;;
51010;SDS011;37038;50.182;8.624;2023-01-15T00:51:05;3.20;;;1.70;;
51010;SDS011;37038;50.182;8.624;2023-01-15T00:53:57;2.55;;;1.95;;
51010;SDS011;37038;50.182;8.624;2023-01-15T00:56:54;1.40;;;1.30;;
51010;SDS011;37038;50.182;8.624;2023-01-15T00:59:47;2.60;;;2.10;;
51010;SDS011;37038;50.182;8.624;2023-01-15T01:02:39;2.75;;;2.33;;
51010;SDS011;37038;50.182;8.624;2023-01-15T01:05:31;3.40;;;2.10;;
51010;SDS011;37038;50.182;8.624;2023-01-15T01:08:33;3.33;;;2.83;;
51010;SDS011;37038;50.182;8.624;2023-01-15T01:11:26;1.40;;;1.30;;
51010;SDS011;37038;50.182;8.624;2023-01-15T01:14:37;0.80;;;0.80;;
51010;SDS011;37038;50.182;8.624;2023-01-15T01:17:39;0.90;;;0.70;;
51010;SDS011;37038;50.182;8.624;2023-01-15T01:20:37;0.90;;;0.90;;
51010;SDS011;37038;50.182;8.624;2023-01-15T01:23:27;2.90;;;1.08;;
51010;SDS011;37038;50.182;8.624;2023-01-15T01:26:16;0.80;;;0.80;;
51010;SDS011;37038;50.182;8.624;2023-01-15T01:29:07;0.80;;;0.80;;
51010;SDS011;37038;50.182;8.624;2023-01-15T01:32:06;0.75;;;0.75;;
51010;SDS011;37038;50.182;8.624;2023-01-15T01:34:57;1.23;;;1.13;;
51010;SDS011;37038;50.182;8.624;2023-01-15T01:37:51;2.17;;;0.93;;
51010;SDS011;37038;50.182;8.624;2023-01-15T01:40:44;0.90;;;0.70;;
51010;SDS011;37038;50.182;8.624;2023-01-15T01:46:43;0.65;;;0.65;;
51010;SDS011;37038;50.182;8.624;2023-01-15T01:49:32;2.05;;;1.02;;
51010;SDS011;37038;50.182;8.624;2023-01-15T01:52:29;0.50;;;0.50;;
51010;SDS011;37038;50.182;8.624;2023-01-15T01:55:23;0.80;;;0.80;;
51010;SDS011;37038;50.182;8.624;2023-01-15T01:58:17;0.80;;;0.80;;
51010;SDS011;37038;50.182;8.624;2023-01-15T02:01:15;1.67;;;1.25;;
51010;SDS011;37038;50.182;8.624;2023-01-15T02:04:06;2.57;;;1.47;;
51010;SDS011;37038;50.182;8.624;2023-01-15T02:07:01;1.25;;;1.00;;
51010;SDS011;37038;50.182;8.624;2023-01-15T02:09:51;0.80;;;0.80;;
51010;SDS011;37038;50.182;8.624;2023-01-15T02:12:45;0.70;;;0.70;;
51010;SDS011;37038;50.182;8.624;2023-01-15T02:18:28;0.40;;;0.40;;
51010;SDS011;37038;50.182;8.624;2023-01-15T02:25:06;0.40;;;0.40;;
51010;SDS011;37038;50.182;8.624;2023-01-15T02:28:28;0.40;;;0.40;;
51010;SDS011;37038;50.182;8.624;2023-01-15T02:31:52;1.30;;;0.40;;
51010;SDS011;37038;50.182;8.624;2023-01-15T02:35:12;0.75;;;0.50;;
51010;SDS011;37038;50.182;8.624;2023-01-15T02:49:33;0.35;;;0.35;;
51010;SDS011;37038;50.182;8.624;2023-01-15T02:52:54;0.80;;;0.40;;
51010;SDS011;37038;50.182;8.624;2023-01-15T02:56:36;0.40;;;0.40;;
51010;SDS011;37038;50.182;8.624;2023-01-15T02:59:40;0.47;;;0.47;;
51010;SDS011;37038;50.182;8.624;2023-01-15T03:02:53;0.60;;;0.60;;
51010;SDS011;37038;50.182;8.624;2023-01-15T03:06:10;0.52;;;0.52;;
51010;SDS011;37038;50.182;8.624;2023-01-15T03:09:32;0.40;;;0.40;;
51010;SDS011;37038;50.182;8.624;2023-01-15T03:23:20;0.50;;;0.50;;
51010;SDS011;37038;50.182;8.624;2023-01-15T03:26:36;0.60;;;0.60;;
51010;SDS011;37038;50.182;8.624;2023-01-15T03:29:33;0.50;;;0.50;;
51010;SDS011;37038;50.182;8.624;2023-01-15T03:32:40;1.35;;;0.65;;
51010;SDS011;37038;50.182;8.624;2023-01-15T03:39:13;0.85;;;0.60;;
51010;SDS011;37038;50.182;8.624;2023-01-15T03:42:47;0.63;;;0.60;;
51010;SDS011;37038;50.182;8.624;2023-01-15T03:49:56;0.60;;;0.60;;
51010;SDS011;37038;50.182;8.624;2023-01-15T03:57:05;0.60;;;0.60;;
51010;SDS011;37038;50.182;8.624;2023-01-15T04:00:33;0.50;;;0.50;;
51010;SDS011;37038;50.182;8.624;2023-01-15T04:16:37;0.55;;;0.55;;
51010;SDS011;37038;50.182;8.624;2023-01-15T04:20:49;0.63;;;0.63;;
51010;SDS011;37038;50.182;8.624;2023-01-15T04:24:50;0.80;;;0.80;;
51010;SDS011;37038;50.182;8.624;2023-01-15T04:28:23;1.38;;;0.65;;
51010;SDS011;37038;50.182;8.624;2023-01-15T04:46:56;0.80;;;0.80;;
51010;SDS011;37038;50.182;8.624;2023-01-15T04:50:06;1.55;;;0.70;;
51010;SDS011;37038;50.182;8.624;2023-01-15T04:53:08;0.60;;;0.60;;
51010;SDS011;37038;50.182;8.624;2023-01-15T04:56:00;0.95;;;0.75;;
51010;SDS011;37038;50.182;8.624;2023-01-15T04:59:03;1.85;;;0.70;;
51010;SDS011;37038;50.182;8.624;2023-01-15T05:02:02;0.80;;;0.80;;
51010;SDS011;37038;50.182;8.624;2023-01-15T05:05:04;1.60;;;0.80;;
51010;SDS011;37038;50.182;8.624;2023-01-15T05:07:55;2.20;;;0.90;;
51010;SDS011;37038;50.182;8.624;2023-01-15T05:10:45;2.03;;;1.20;;
51010;SDS011;37038;50.182;8.624;2023-01-15T05:13:36;0.73;;;0.73;;
51010;SDS011;37038;50.182;8.624;2023-01-15T05:16:27;0.70;;;0.70;;
51010;SDS011;37038;50.182;8.624;2023-01-15T05:19:32;1.85;;;0.70;;
51010;SDS011;37038;50.182;8.624;2023-01-15T05:22:29;0.85;;;0.85;;
51010;SDS011;37038;50.182;8.624;2023-01-15T05:25:31;0.73;;;0.73;;
51010;SDS011;37038;50.182;8.624;2023-01-15T05:28:29;1.08;;;0.98;;
51010;SDS011;37038;50.182;8.624;2023-01-15T05:31:29;0.82;;;0.70;;
51010;SDS011;37038;50.182;8.624;2023-01-15T05:34:21;0.75;;;0.73;;
51010;SDS011;37038;50.182;8.624;2023-01-15T05:40:25;0.88;;;0.88;;
51010;SDS011;37038;50.182;8.624;2023-01-15T05:43:33;2.63;;;0.93;;
51010;SDS011;37038;50.182;8.624;2023-01-15T05:46:21;1.02;;;0.73;;
51010;SDS011;37038;50.182;8.624;2023-01-15T05:49:16;1.65;;;0.90;;
51010;SDS011;37038;50.182;8.624;2023-01-15T06:00:23;1.90;;;1.02;;
51010;SDS011;37038;50.182;8.624;2023-01-15T06:14:12;0.80;;;0.80;;
51010;SDS011;37038;50.182;8.624;2023-01-15T06:17:19;1.30;;;0.90;;
51010;SDS011;37038;50.182;8.624;2023-01-15T06:20:08;1.33;;;0.80;;
51010;SDS011;37038;50.182;8.624;2023-01-15T06:23:07;0.90;;;0.90;;
51010;SDS011;37038;50.182;8.624;2023-01-15T06:26:09;0.63;;;0.63;;
51010;SDS011;37038;50.182;8.624;2023-01-15T06:29:15;0.68;;;0.68;;
51010;SDS011;37038;50.182;8.624;2023-01-15T06:37:36;1.23;;;0.80;;
51010;SDS011;37038;50.182;8.624;2023-01-15T06:41:18;0.70;;;0.70;;
51010;SDS011;37038;50.182;8.624;2023-01-15T06:45:07;0.70;;;0.70;;
51010;SDS011;37038;50.182;8.624;2023-01-15T06:49:13;1.63;;;1.10;;
51010;SDS011;37038;50.182;8.624;2023-01-15T06:53:13;1.48;;;0.80;;
51010;SDS011;37038;50.182;8.624;2023-01-15T06:56:42;0.90;;;0.90;;
51010;SDS011;37038;50.182;8.624;2023-01-15T07:00:17;2.00;;;1.10;;
51010;SDS011;37038;50.182;8.624;2023-01-15T07:04:08;1.83;;;1.00;;
51010;SDS011;37038;50.182;8.624;2023-01-15T07:06:58;1.23;;;1.00;;
51010;SDS011;37038;50.182;8.624;2023-01-15T07:13:50;1.13;;;0.95;;
51010;SDS011;37038;50.182;8.624;2023-01-15T07:17:14;1.17;;;1.05;;
51010;SDS011;37038;50.182;8.624;2023-01-15T07:20:43;1.42;;;1.17;;
51010;SDS011;37038;50.182;8.624;2023-01-15T07:28:20;1.17;;;1.00;;
51010;SDS011;37038;50.182;8.624;2023-01-15T07:32:10;1.92;;;1.00;;
51010;SDS011;37038;50.182;8.624;2023-01-15T07:39:02;2.75;;;1.10;;
51010;SDS011;37038;50.182;8.624;2023-01-15T07:42:02;1.83;;;1.30;;
51010;SDS011;37038;50.182;8.624;2023-01-15T07:45:18;2.65;;;1.20;;
51010;SDS011;37038;50.182;8.624;2023-01-15T07:48:31;1.10;;;1.00;;
51010;SDS011;37038;50.182;8.624;2023-01-15T07:51:41;2.55;;;1.30;;
51010;SDS011;37038;50.182;8.624;2023-01-15T07:54:45;4.65;;;1.52;;
51010;SDS011;37038;50.182;8.624;2023-01-15T07:57:45;3.85;;;1.38;;
51010;SDS011;37038;50.182;8.624;2023-01-15T08:01:01;1.85;;;1.00;;
51010;SDS011;37038;50.182;8.624;2023-01-15T08:03:57;1.92;;;1.10;;
51010;SDS011;37038;50.182;8.624;2023-01-15T08:07:12;1.65;;;1.10;;
51010;SDS011;37038;50.182;8.624;2023-01-15T08:10:13;1.48;;;1.10;;
51010;SDS011;37038;50.182;8.624;2023-01-15T08:13:15;4.47;;;1.60;;
51010;SDS011;37038;50.182;8.624;2023-01-15T08:16:29;4.93;;;1.40;;
51010;SDS011;37038;50.182;8.624;2023-01-15T08:19:26;1.73;;;1.63;;
51010;SDS011;37038;50.182;8.624;2023-01-15T08:22:22;1.77;;;1.45;;
51010;SDS011;37038;50.182;8.624;2023-01-15T08:25:17;3.35;;;2.08;;
51010;SDS011;37038;50.182;8.624;2023-01-15T08:28:12;2.75;;;1.90;;
51010;SDS011;37038;50.182;8.624;2023-01-15T08:34:58;3.83;;;2.17;;
51010;SDS011;37038;50.182;8.624;2023-01-15T08:38:14;3.40;;;1.73;;
51010;SDS011;37038;50.182;8.624;2023-01-15T08:41:43;2.75;;;1.70;;
51010;SDS011;37038;50.182;8.624;2023-01-15T08:45:23;2.78;;;1.70;;
51010;SDS011;37038;50.182;8.624;2023-01-15T08:48:19;5.90;;;1.80;;
51010;SDS011;37038;50.182;8.624;2023-01-15T08:52:00;2.30;;;1.85;;
51010;SDS011;37038;50.182;8.624;2023-01-15T08:55:48;2.15;;;1.50;;
51010;SDS011;37038;50.182;8.624;2023-01-15T08:59:06;1.77;;;1.50;;
51010;SDS011;37038;50.182;8.624;2023-01-15T09:02:20;1.38;;;1.20;;
51010;SDS011;37038;50.182;8.624;2023-01-15T09:05:26;2.05;;;0.90;;
51010;SDS011;37038;50.182;8.624;2023-01-15T09:08:54;0.90;;;0.90;;
51010;SDS011;37038;50.182;8.624;2023-01-15T09:15:11;1.00;;;0.93;;
51010;SDS011;37038;50.182;8.624;2023-01-15T09:21:55;1.10;;;1.10;;
51010;SDS011;37038;50.182;8.624;2023-01-15T09:28:14;3.00;;;1.10;;
51010;SDS011;37038;50.182;8.624;2023-01-15T09:31:16;1.13;;;1.05;;
51010;SDS011;37038;50.182;8.624;2023-01-15T09:34:18;1.20;;;1.08;;
51010;SDS011;37038;50.182;8.624;2023-01-15T09:37:58;1.33;;;1.00;;
51010;SDS011;37038;50.182;8.624;2023-01-15T09:41:06;1.80;;;1.02;;
51010;SDS011;37038;50.182;8.624;2023-01-15T10:05:52;1.30;;;1.10;;
51010;SDS011;37038;50.182;8.624;2023-01-15T10:11:50;1.10;;;1.10;;
51010;SDS011;37038;50.182;8.624;2023-01-15T10:27:21;2.47;;;1.25;;
51010;SDS011;37038;50.182;8.624;2023-01-15T10:30:32;1.88;;;1.25;;
51010;SDS011;37038;50.182;8.624;2023-01-15T10:36:51;1.13;;;1.00;;
51010;SDS011;37038;50.182;8.624;2023-01-15T10:39:51;1.38;;;0.80;;
51010;SDS011;37038;50.182;8.624;2023-01-15T10:43:19;1.50;;;0.90;;
51010;SDS011;37038;50.182;8.624;2023-01-15T10:46:23;1.60;;;1.00;;
51010;SDS011;37038;50.182;8.624;2023-01-15T10:49:39;2.17;;;1.58;;
51010;SDS011;37038;50.182;8.624;2023-01-15T10:52:45;1.08;;;0.98;;
51010;SDS011;37038;50.182;8.624;2023-01-15T10:56:20;1.58;;;1.15;;
51010;SDS011;37038;50.182;8.624;2023-01-15T11:00:00;1.63;;;1.08;;
51010;SDS011;37038;50.182;8.624;2023-01-15T11:03:28;6.50;;;1.25;;
51010;SDS011;37038;50.182;8.624;2023-01-15T11:10:04;1.48;;;1.35;;
51010;SDS011;37038;50.182;8.624;2023-01-15T11:13:01;2.00;;;1.35;;
51010;SDS011;37038;50.182;8.624;2023-01-15T11:16:21;1.13;;;1.10;;
51010;SDS011;37038;50.182;8.624;2023-01-15T11:19:36;2.53;;;1.00;;
51010;SDS011;37038;50.182;8.624;2023-01-15T11:22:26;2.58;;;1.58;;
51010;SDS011;37038;50.182;8.624;2023-01-15T11:25:27;1.90;;;1.00;;
51010;SDS011;37038;50.182;8.624;2023-01-15T11:28:37;1.40;;;1.30;;
51010;SDS011;37038;50.182;8.624;2023-01-15T11:31:41;1.75;;;1.35;;
51010;SDS011;37038;50.182;8.624;2023-01-15T11:34:32;2.85;;;1.38;;
51010;SDS011;37038;50.182;8.624;2023-01-15T11:37:20;2.28;;;1.30;;
51010;SDS011;37038;50.182;8.624;2023-01-15T11:40:18;1.67;;;1.50;;
51010;SDS011;37038;50.182;8.624;2023-01-15T11:43:17;1.98;;;1.55;;
51010;SDS011;37038;50.182;8.624;2023-01-15T11:49:51;2.65;;;1.58;;
51010;SDS011;37038;50.182;8.624;2023-01-15T11:52:58;5.10;;;2.00;;
51010;SDS011;37038;50.182;8.624;2023-01-15T11:55:51;2.67;;;1.20;;
51010;SDS011;37038;50.182;8.624;2023-01-15T11:58:48;4.00;;;1.90;;
51010;SDS011;37038;50.182;8.624;2023-01-15T12:04:48;4.00;;;1.80;;
51010;SDS011;37038;50.182;8.624;2023-01-15T12:07:57;4.03;;;1.52;;
51010;SDS011;37038;50.182;8.624;2023-01-15T12:10:53;3.15;;;1.20;;
51010;SDS011;37038;50.182;8.624;2023-01-15T12:14:26;3.88;;;1.10;;
51010;SDS011;37038;50.182;8.624;2023-01-15T12:30:26;4.15;;;1.15;;
51010;SDS011;37038;50.182;8.624;2023-01-15T12:36:56;6.05;;;1.30;;
51010;SDS011;37038;50.182;8.624;2023-01-15T12:43:22;4.43;;;1.48;;
51010;SDS011;37038;50.182;8.624;2023-01-15T12:47:09;4.20;;;1.73;;
51010;SDS011;37038;50.182;8.624;2023-01-15T12:50:43;4.47;;;1.38;;
51010;SDS011;37038;50.182;8.624;2023-01-15T12:53:48;3.65;;;1.30;;
51010;SDS011;37038;50.182;8.624;2023-01-15T12:57:03;3.58;;;1.58;;
51010;SDS011;37038;50.182;8.624;2023-01-15T13:11:56;3.50;;;1.40;;
51010;SDS011;37038;50.182;8.624;2023-01-15T13:15:24;5.78;;;1.75;;
51010;SDS011;37038;50.182;8.624;2023-01-15T13:22:26;2.00;;;1.15;;
51010;SDS011;37038;50.182;8.624;2023-01-15T13:26:11;4.50;;;1.55;;
51010;SDS011;37038;50.182;8.624;2023-01-15T13:33:24;3.53;;;1.30;;
51010;SDS011;37038;50.182;8.624;2023-01-15T13:36:49;5.03;;;1.55;;
51010;SDS011;37038;50.182;8.624;2023-01-15T13:43:03;3.95;;;1.52;;
51010;SDS011;37038;50.182;8.624;2023-01-15T13:45:55;4.93;;;1.50;;
51010;SDS011;37038;50.182;8.624;2023-01-15T13:49:22;4.03;;;1.67;;
51010;SDS011;37038;50.182;8.624;2023-01-15T14:07:45;3.70;;;1.55;;
51010;SDS011;37038;50.182;8.624;2023-01-15T14:11:05;4.88;;;1.50;;
51010;SDS011;37038;50.182;8.624;2023-01-15T14:25:20;3.53;;;1.30;;
51010;SDS011;37038;50.182;8.624;2023-01-15T14:35:19;5.25;;;1.63;;
51010;SDS011;37038;50.182;8.624;2023-01-15T14:38:12;3.78;;;1.60;;
51010;SDS011;37038;50.182;8.624;2023-01-15T14:41:04;1.63;;;1.25;;
51010;SDS011;37038;50.182;8.624;2023-01-15T14:44:00;7.93;;;2.08;;
51010;SDS011;37038;50.182;8.624;2023-01-15T14:47:01;4.25;;;1.73;;
51010;SDS011;37038;50.182;8.624;2023-01-15T14:50:02;4.72;;;1.60;;
51010;SDS011;37038;50.182;8.624;2023-01-15T15:03:33;5.32;;;1.60;;
51010;SDS011;37038;50.182;8.624;2023-01-15T15:06:50;9.18;;;2.15;;
51010;SDS011;37038;50.182;8.624;2023-01-15T15:09:54;5.70;;;1.55;;
51010;SDS011;37038;50.182;8.624;2023-01-15T15:16:22;5.03;;;1.98;;
51010;SDS011;37038;50.182;8.624;2023-01-15T15:22:42;5.18;;;1.65;;
51010;SDS011;37038;50.182;8.624;2023-01-15T15:25:34;4.60;;;1.33;;
51010;SDS011;37038;50.182;8.624;2023-01-15T15:28:28;6.45;;;1.70;;
51010;SDS011;37038;50.182;8.624;2023-01-15T15:31:22;5.57;;;1.60;;
51010;SDS011;37038;50.182;8.624;2023-01-15T15:37:28;5.40;;;1.48;;
51010;SDS011;37038;50.182;8.624;2023-01-15T15:40:23;4.47;;;1.52;;
51010;SDS011;37038;50.182;8.624;2023-01-15T15:43:25;4.78;;;2.28;;
51010;SDS011;37038;50.182;8.624;2023-01-15T15:46:50;8.23;;;2.25;;
51010;SDS011;37038;50.182;8.624;2023-01-15T15:57:27;5.88;;;2.00;;
51010;SDS011;37038;50.182;8.624;2023-01-15T16:00:37;6.53;;;2.17;;
51010;SDS011;37038;50.182;8.624;2023-01-15T16:03:33;6.47;;;2.85;;
51010;SDS011;37038;50.182;8.624;2023-01-15T16:06:25;5.70;;;1.70;;
51010;SDS011;37038;50.182;8.624;2023-01-15T16:09:21;3.50;;;1.40;;
51010;SDS011;37038;50.182;8.624;2023-01-15T16:12:35;6.65;;;2.50;;
51010;SDS011;37038;50.182;8.624;2023-01-15T16:15:52;6.72;;;2.05;;
51010;SDS011;37038;50.182;8.624;2023-01-15T16:18:47;6.32;;;2.10;;
51010;SDS011;37038;50.182;8.624;2023-01-15T16:21:41;7.10;;;1.88;;
51010;SDS011;37038;50.182;8.624;2023-01-15T16:43:35;4.82;;;1.80;;
51010;SDS011;37038;50.182;8.624;2023-01-15T16:55:41;2.92;;;1.80;;
51010;SDS011;37038;50.182;8.624;2023-01-15T16:58:35;5.50;;;1.98;;
51010;SDS011;37038;50.182;8.624;2023-01-15T17:04:54;7.07;;;2.28;;
51010;SDS011;37038;50.182;8.624;2023-01-15T17:16:24;3.50;;;1.50;;
51010;SDS011;37038;50.182;8.624;2023-01-15T17:19:32;2.05;;;1.42;;
51010;SDS011;37038;50.182;8.624;2023-01-15T17:22:44;3.42;;;1.77;;
51010;SDS011;37038;50.182;8.624;2023-01-15T17:25:38;3.05;;;1.58;;
51010;SDS011;37038;50.182;8.624;2023-01-15T17:28:42;3.38;;;1.65;;
51010;SDS011;37038;50.182;8.624;2023-01-15T17:31:36;3.08;;;1.65;;
51010;SDS011;37038;50.182;8.624;2023-01-15T17:37:50;2.30;;;1.65;;
51010;SDS011;37038;50.182;8.624;2023-01-15T17:40:48;6.93;;;1.80;;
51010;SDS011;37038;50.182;8.624;2023-01-15T17:46:41;4.05;;;1.27;;
51010;SDS011;37038;50.182;8.624;2023-01-15T17:49:35;5.10;;;1.35;;
51010;SDS011;37038;50.182;8.624;2023-01-15T17:53:12;2.97;;;1.42;;
51010;SDS011;37038;50.182;8.624;2023-01-15T17:56:38;4.68;;;1.23;;
51010;SDS011;37038;50.182;8.624;2023-01-15T18:00:14;1.50;;;1.40;;
51010;SDS011;37038;50.182;8.624;2023-01-15T18:03:38;4.00;;;1.48;;
51010;SDS011;37038;50.182;8.624;2023-01-15T18:07:07;3.90;;;1.27;;
51010;SDS011;37038;50.182;8.624;2023-01-15T18:10:32;3.42;;;1.48;;
51010;SDS011;37038;50.182;8.624;2023-01-15T18:18:44;3.05;;;1.40;;
51010;SDS011;37038;50.182;8.624;2023-01-15T18:22:01;2.78;;;1.67;;
51010;SDS011;37038;50.182;8.624;2023-01-15T18:41:57;6.50;;;1.88;;
51010;SDS011;37038;50.182;8.624;2023-01-15T18:52:54;4.53;;;1.70;;
51010;SDS011;37038;50.182;8.624;2023-01-15T19:06:56;6.20;;;2.85;;
51010;SDS011;37038;50.182;8.624;2023-01-15T19:14:32;5.75;;;2.30;;
51010;SDS011;37038;50.182;8.624;2023-01-15T19:28:47;4.95;;;2.45;;
51010;SDS011;37038;50.182;8.624;2023-01-15T19:36:38;8.60;;;2.45;;
51010;SDS011;37038;50.182;8.624;2023-01-15T19:40:01;6.32;;;2.08;;
51010;SDS011;37038;50.182;8.624;2023-01-15T19:48:15;10.50;;;2.55;;
51010;SDS011;37038;50.182;8.624;2023-01-15T19:52:26;8.18;;;2.55;;
51010;SDS011;37038;50.182;8.624;2023-01-15T19:56:06;5.25;;;2.10;;
51010;SDS011;37038;50.182;8.624;2023-01-15T20:03:10;9.38;;;2.88;;
51010;SDS011;37038;50.182;8.624;2023-01-15T20:06:23;5.38;;;2.53;;
51010;SDS011;37038;50.182;8.624;2023-01-15T20:15:25;5.80;;;3.15;;
51010;SDS011;37038;50.182;8.624;2023-01-15T20:18:17;10.25;;;2.58;;
51010;SDS011;37038;50.182;8.624;2023-01-15T20:21:08;6.97;;;2.58;;
51010;SDS011;37038;50.182;8.624;2023-01-15T20:24:06;6.93;;;2.63;;
51010;SDS011;37038;50.182;8.624;2023-01-15T20:27:10;8.23;;;3.28;;
51010;SDS011;37038;50.182;8.624;2023-01-15T20:30:40;11.63;;;3.03;;
51010;SDS011;37038;50.182;8.624;2023-01-15T20:34:06;9.07;;;2.65;;
51010;SDS011;37038;50.182;8.624;2023-01-15T20:40:53;12.02;;;4.30;;
51010;SDS011;37038;50.182;8.624;2023-01-15T20:53:15;14.65;;;2.53;;
51010;SDS011;37038;50.182;8.624;2023-01-15T21:00:36;12.82;;;3.97;;
51010;SDS011;37038;50.182;8.624;2023-01-15T21:14:44;9.38;;;3.65;;
51010;SDS011;37038;50.182;8.624;2023-01-15T21:26:24;10.65;;;2.80;;
51010;SDS011;37038;50.182;8.624;2023-01-15T21:29:41;9.07;;;3.20;;
51010;SDS011;37038;50.182;8.624;2023-01-15T21:33:37;10.88;;;2.83;;
51010;SDS011;37038;50.182;8.624;2023-01-15T21:36:56;13.77;;;3.65;;
51010;SDS011;37038;50.182;8.624;2023-01-15T21:40:26;8.75;;;3.25;;
51010;SDS011;37038;50.182;8.624;2023-01-15T21:47:34;10.15;;;3.58;;
51010;SDS011;37038;50.182;8.624;2023-01-15T21:50:34;13.20;;;3.63;;
51010;SDS011;37038;50.182;8.624;2023-01-15T21:53:48;11.93;;;3.65;;
51010;SDS011;37038;50.182;8.624;2023-01-15T21:57:12;14.88;;;4.68;;
51010;SDS011;37038;50.182;8.624;2023-01-15T22:00:49;12.52;;;3.28;;
51010;SDS011;37038;50.182;8.624;2023-01-15T22:04:15;9.60;;;3.17;;
51010;SDS011;37038;50.182;8.624;2023-01-15T22:07:41;11.15;;;3.97;;
51010;SDS011;37038;50.182;8.624;2023-01-15T22:11:09;8.48;;;3.40;;
51010;SDS011;37038;50.182;8.624;2023-01-15T22:14:25;10.30;;;3.28;;
51010;SDS011;37038;50.182;8.624;2023-01-15T22:21:09;10.98;;;3.38;;
51010;SDS011;37038;50.182;8.624;2023-01-15T22:24:12;9.60;;;3.72;;
51010;SDS011;37038;50.182;8.624;2023-01-15T22:27:13;16.75;;;2.97;;
51010;SDS011;37038;50.182;8.624;2023-01-15T22:30:08;3.53;;;2.10;;
51010;SDS011;37038;50.182;8.624;2023-01-15T22:33:08;3.78;;;2.20;;
51010;SDS011;37038;50.182;8.624;2023-01-15T22:36:15;6.82;;;2.47;;
51010;SDS011;37038;50.182;8.624;2023-01-15T22:39:12;12.68;;;3.22;;
51010;SDS011;37038;50.182;8.624;2023-01-15T22:42:08;3.40;;;2.15;;
51010;SDS011;37038;50.182;8.624;2023-01-15T22:45:25;7.47;;;3.15;;
51010;SDS011;37038;50.182;8.624;2023-01-15T22:48:23;7.15;;;2.75;;
51010;SDS011;37038;50.182;8.624;2023-01-15T22:51:23;10.48;;;3.20;;
51010;SDS011;37038;50.182;8.624;2023-01-15T22:54:12;12.32;;;3.45;;
51010;SDS011;37038;50.182;8.624;2023-01-15T22:57:11;10.65;;;2.63;;
51010;SDS011;37038;50.182;8.624;2023-01-15T23:00:13;7.25;;;3.00;;
51010;SDS011;37038;50.182;8.624;2023-01-15T23:03:01;7.90;;;3.33;;
51010;SDS011;37038;50.182;8.624;2023-01-15T23:06:03;12.18;;;2.83;;
51010;SDS011;37038;50.182;8.624;2023-01-15T23:09:18;6.20;;;2.42;;
51010;SDS011;37038;50.182;8.624;2023-01-15T23:12:32;9.98;;;3.25;;
51010;SDS011;37038;50.182;8.624;2023-01-15T23:15:33;5.13;;;2.65;;
51010;SDS011;37038;50.182;8.624;2023-01-15T23:18:56;7.03;;;2.60;;
51010;SDS011;37038;50.182;8.624;2023-01-15T23:22:04;7.03;;;2.50;;
51010;SDS011;37038;50.182;8.624;2023-01-15T23:25:10;7.65;;;2.25;;
51010;SDS011;37038;50.182;8.624;2023-01-15T23:28:13;9.07;;;2.80;;
51010;SDS011;37038;50.182;8.624;2023-01-15T23:31:12;8.25;;;2.63;;
51010;SDS011;37038;50.182;8.624;2023-01-15T23:34:20;4.63;;;2.45;;
51010;SDS011;37038;50.182;8.624;2023-01-15T23:37:51;3.80;;;1.70;;
51010;SDS011;37038;50.182;8.624;2023-01-15T23:40:44;10.38;;;2.15;;
51010;SDS011;37038;50.182;8.624;2023-01-15T23:43:43;4.15;;;1.95;;
51010;SDS011;37038;50.182;8.624;2023-01-15T23:46:53;4.55;;;2.10;;
51010;SDS011;37038;50.182;8.624;2023-01-15T23:49:48;6.03;;;1.83;;
51010;SDS011;37038;50.182;8.624;2023-01-15T23:52:52;5.05;;;1.77;;
51010;SDS011;37038;50.182;8.624;2023-01-15T23:55:50;4.78;;;1.92;;
51010;SDS011;37038;50.182;8.624;2023-01-15T23:58:42;11.45;;;2.42;;
